x

Isle Of Shoals, Nh (iosn3) Weather Station

12:00am - Tue 16th Oct 2018 All times are EDT. -4 hours from GMT.

  • Wind
    25mph, 29mph gusts
  • Air Temp 64°f
  • Sea Pressure 1003.1mb
  • Isle Of Shoals, Nh
  • Isle Of Shoals, Nh

More Historic Weather Station data

Upgrade to MSW Pro to gain access to the past 30 days of data for over 8000 Wavebouys and Weather Stations around the globe.

Join

Comparision Forecast

View Surf forecast
   
Tue 10/16 12:00am 25 29 mph 1003.1mb 64f
Mon 10/15 11:00pm 28 29 mph 1003.9mb 64f
10:00pm 25 26 mph 1005mb 63f
9:00pm 22 23 mph 1005.9mb 62f
8:00pm 21 22 mph 1006.6mb 62f
7:00pm 26 29 mph 1008.2mb 61f
6:00pm 24 26 mph 1009.2mb 60f
4:00pm 26 30 mph 1012mb 60f
3:00pm 25 29 mph 1013mb 59f
2:00pm 26 30 mph 1014.9mb 58f
1:00pm 22 24 mph 1016.3mb 56f
12:00pm 18 20 mph 1018.4mb 54f
11:00am 16 17 mph 1019.6mb 55f
10:00am 15 17 mph 1020.4mb 53f
9:00am 11 13 mph 1020.9mb 51f
8:00am 11 13 mph 1021.5mb 50f
7:00am 10 11 mph 1021.6mb 51f
6:00am 3 6 mph 1021.5mb 49f
5:00am 2 3 mph 1021.7mb 49f
4:00am 8 8 mph 1022.2mb 50f
3:00am 8 9 mph 1022mb 50f
2:00am 5 6 mph 1022.3mb 51f
1:00am 11 13 mph 1022.6mb 51f
12:00am 15 16 mph 1022.2mb 53f
Sun 10/14 11:00pm 18 21 mph 1022.1mb 53f
10:00pm 20 21 mph 1021.7mb 53f
9:00pm 18 21 mph 1021.5mb 54f
8:00pm 15 15 mph 1021.5mb 55f
7:00pm 14 15 mph 1021.5mb 55f
6:00pm 16 16 mph 1021.1mb 55f
5:00pm 17 18 mph 1020.6mb 55f
4:00pm 11 11 mph 1020.8mb 55f
3:00pm 11 14 mph 1020.5mb 54f
2:00pm 9 10 mph 1020.8mb 53f
1:00pm 10 13 mph 1021mb 51f
12:00pm 11 13 mph 1021mb 50f
11:00am 11 13 mph 1021.4mb 48f
10:00am 15 16 mph 1021.3mb 47f
9:00am 17 20 mph 1021mb 45f
8:00am 21 22 mph 1020.5mb 45f
7:00am 20 21 mph 1019.8mb 44f
6:00am 16 18 mph 1019.3mb 45f
4:00am 20 21 mph 1017.7mb 46f
3:00am 17 18 mph 1017.4mb 47f
2:00am 17 20 mph 1016.9mb 47f
1:00am 15 16 mph 1016.1mb 48f
12:00am 16 18 mph 1015.3mb 48f
Sat 10/13 11:00pm 20 22 mph 1015mb 49f
10:00pm 15 16 mph 1014.6mb 50f
9:00pm 13 15 mph 1013.4mb 50f
8:00pm 14 15 mph 1012.6mb 50f
7:00pm 16 18 mph 1011.5mb 50f
6:00pm 14 16 mph 1010.3mb 50f
5:00pm 16 18 mph 1009.7mb 50f
4:00pm 16 20 mph 1009.4mb 48f
3:00pm 14 17 mph 1009mb 47f
2:00pm 21 22 mph 1008.8mb 46f
1:00pm 17 22 mph 1008.8mb 46f
12:00pm 20 22 mph 1009.1mb 46f
10:00am 17 18 mph 1008.8mb 48f
9:00am 8 13 mph 1008.1mb 49f
8:00am 7 8 mph 1007.8mb 50f
7:00am 13 14 mph 1007.2mb 50f
6:00am 14 15 mph 1006.7mb 49f
5:00am 11 13 mph 1006.7mb 49f
4:00am 15 16 mph 1006.1mb 49f
3:00am 11 13 mph 1006.2mb 50f
2:00am 14 15 mph 1006.2mb 51f
1:00am 13 14 mph 1005.8mb 51f
12:00am 13 14 mph 1005.8mb 51f
Fri 10/12 11:00pm 14 16 mph 1005.7mb 52f
10:00pm 11 14 mph 1004.9mb 52f
9:00pm 17 20 mph 1004.2mb 53f
8:00pm 20 22 mph 1002.7mb 54f
7:00pm 18 22 mph 1001.8mb 56f
6:00pm 18 22 mph 1000.7mb 57f
5:00pm 23 25 mph 999.3mb 58f
4:00pm 22 24 mph 998.9mb 58f
3:00pm 25 29 mph 997.8mb 58f
2:00pm 25 29 mph 997.7mb 57f
1:00pm 26 29 mph 998.1mb 56f
12:00pm 14 15 mph 998.5mb 55f
11:00am 15 16 mph 998.5mb 55f
10:00am 16 18 mph 998.4mb 55f
9:00am 15 16 mph 998.6mb 54f
8:00am 11 13 mph 999.5mb 53f
7:00am 11 13 mph 999.2mb 53f
6:00am 6 7 mph 999.7mb 53f